TRA38C EHRD-LEBL
Flight info
| Callsign | TRA38C |
|---|---|
| Flight time | N/A |
| Altitude | 33000 |
| Route | WOODY N872 CIV DCT KOVIN/N0458F350 DCT DUCRA DCT RESMI DCT DEKOD DCT DISAK DCT DIRMO DCT VALKU DCT ATSUP DCT MINSO DCT DEGOL DCT PPG DCT ALBER |
| Aircraft | B738/M-SDE2E3FGHIRWXY/LB1 |
Departure
| Time | 2026-05-07 07:11 |
|---|---|
| Airport | Rotterdam The Hague Airport (EHRD) |
Arrival
| Time | N/A |
|---|---|
| Airport | Josep Tarradellas Barcelona-El Prat Airport (LEBL) |
| Time | Latitude | Longitude | Altitude | Speed | Heading |
|---|---|---|---|---|---|
| 2026-05-07 07:00 | 51.95127 | 4.43437 | -7 ft | 0 kts | 326° |
| 2026-05-07 07:06 | 51.95140 | 4.43425 | -7 ft | 5 kts | 339° |
| 2026-05-07 07:07 | 51.95182 | 4.43441 | -7 ft | 6 kts | 11° |
| 2026-05-07 07:07 | 51.95223 | 4.43400 | -7 ft | 10 kts | 283° |
| 2026-05-07 07:07 | 51.95194 | 4.43277 | -7 ft | 14 kts | 237° |
| 2026-05-07 07:07 | 51.95150 | 4.43161 | -7 ft | 12 kts | 239° |
| 2026-05-07 07:08 | 51.95111 | 4.43019 | -7 ft | 16 kts | 264° |
| 2026-05-07 07:08 | 51.95128 | 4.42937 | -7 ft | 0 kts | 320° |
| 2026-05-07 07:08 | 51.95128 | 4.42936 | -7 ft | 0 kts | 320° |
| 2026-05-07 07:09 | 51.95130 | 4.42935 | -7 ft | 2 kts | 320° |
| 2026-05-07 07:09 | 51.95156 | 4.42902 | -7 ft | 7 kts | 323° |
| 2026-05-07 07:09 | 51.95215 | 4.42868 | -7 ft | 11 kts | 26° |
| 2026-05-07 07:09 | 51.95244 | 4.42917 | -7 ft | 0 kts | 58° |
| 2026-05-07 07:10 | 51.95333 | 4.43142 | -7 ft | 64 kts | 56° |
| 2026-05-07 07:10 | 51.95721 | 4.44114 | -5 ft | 140 kts | 57° |
| 2026-05-07 07:10 | 51.96292 | 4.45567 | 571 ft | 158 kts | 56° |
| 2026-05-07 07:11 | 51.96873 | 4.47072 | 1534 ft | 158 kts | 57° |
| 2026-05-07 07:11 | 51.97431 | 4.48554 | 2496 ft | 153 kts | 57° |
| 2026-05-07 07:11 | 51.97940 | 4.50090 | 3239 ft | 156 kts | 61° |
| 2026-05-07 07:11 | 51.98432 | 4.51679 | 3957 ft | 160 kts | 62° |
| 2026-05-07 07:12 | 51.98937 | 4.53316 | 4659 ft | 163 kts | 62° |
| 2026-05-07 07:12 | 51.99453 | 4.54973 | 5367 ft | 167 kts | 62° |
| 2026-05-07 07:12 | 51.99988 | 4.56689 | 5894 ft | 173 kts | 62° |
| 2026-05-07 07:12 | 52.00520 | 4.58433 | 6184 ft | 174 kts | 66° |
| 2026-05-07 07:13 | 52.00640 | 4.60373 | 6433 ft | 179 kts | 101° |
| 2026-05-07 07:13 | 51.99998 | 4.62100 | 6725 ft | 186 kts | 132° |
| 2026-05-07 07:13 | 51.98860 | 4.63360 | 7028 ft | 213 kts | 150° |
| 2026-05-07 07:13 | 51.97423 | 4.64386 | 7314 ft | 240 kts | 155° |
| 2026-05-07 07:14 | 51.95827 | 4.65557 | 7701 ft | 262 kts | 153° |
| 2026-05-07 07:14 | 51.94044 | 4.66598 | 8166 ft | 283 kts | 170° |
| 2026-05-07 07:14 | 51.92076 | 4.66401 | 8966 ft | 288 kts | 195° |
| 2026-05-07 07:14 | 51.90291 | 4.64945 | 9821 ft | 290 kts | 219° |
| 2026-05-07 07:15 | 51.89003 | 4.62492 | 10683 ft | 290 kts | 241° |
| 2026-05-07 07:15 | 51.88070 | 4.59492 | 11332 ft | 302 kts | 242° |
| 2026-05-07 07:15 | 51.86762 | 4.56755 | 11700 ft | 323 kts | 224° |
| 2026-05-07 07:15 | 51.84814 | 4.54676 | 12173 ft | 340 kts | 206° |
| 2026-05-07 07:16 | 51.82596 | 4.53425 | 12878 ft | 346 kts | 197° |
| 2026-05-07 07:16 | 51.80211 | 4.52493 | 13647 ft | 351 kts | 194° |
| 2026-05-07 07:16 | 51.77815 | 4.51652 | 14402 ft | 354 kts | 194° |
| 2026-05-07 07:16 | 51.75426 | 4.50764 | 15129 ft | 358 kts | 194° |
| 2026-05-07 07:17 | 51.72992 | 4.49816 | 15852 ft | 361 kts | 195° |
| 2026-05-07 07:17 | 51.70544 | 4.48826 | 16552 ft | 365 kts | 196° |
| 2026-05-07 07:17 | 51.68916 | 4.48155 | 17008 ft | 367 kts | 196° |
| 2026-05-07 07:17 | 51.68238 | 4.47877 | 17193 ft | 368 kts | 196° |
| 2026-05-07 07:18 | 51.65746 | 4.46854 | 17860 ft | 371 kts | 196° |
| 2026-05-07 07:18 | 51.63204 | 4.45812 | 18516 ft | 375 kts | 196° |
| 2026-05-07 07:18 | 51.60701 | 4.44788 | 19143 ft | 378 kts | 196° |
| 2026-05-07 07:18 | 51.58135 | 4.43740 | 19764 ft | 381 kts | 196° |
| 2026-05-07 07:19 | 51.55560 | 4.42689 | 20376 ft | 384 kts | 196° |
| 2026-05-07 07:19 | 51.52957 | 4.41628 | 20962 ft | 387 kts | 196° |
| 2026-05-07 07:19 | 51.50383 | 4.40580 | 21524 ft | 390 kts | 196° |
| 2026-05-07 07:19 | 51.47732 | 4.39501 | 22082 ft | 394 kts | 196° |
| 2026-05-07 07:20 | 51.45068 | 4.38417 | 22614 ft | 397 kts | 196° |
| 2026-05-07 07:20 | 51.42384 | 4.37312 | 23156 ft | 399 kts | 197° |
| 2026-05-07 07:20 | 51.39773 | 4.35926 | 23654 ft | 401 kts | 202° |
| 2026-05-07 07:20 | 51.37208 | 4.34144 | 24144 ft | 403 kts | 207° |
| 2026-05-07 07:21 | 51.34679 | 4.32198 | 24611 ft | 406 kts | 207° |
| 2026-05-07 07:21 | 51.32088 | 4.30244 | 25075 ft | 409 kts | 207° |
| 2026-05-07 07:21 | 51.29534 | 4.28301 | 25505 ft | 412 kts | 207° |
| 2026-05-07 07:21 | 51.26947 | 4.26324 | 25948 ft | 415 kts | 207° |
| 2026-05-07 07:22 | 51.24330 | 4.24334 | 26377 ft | 417 kts | 207° |
| 2026-05-07 07:22 | 51.21710 | 4.22347 | 26788 ft | 420 kts | 207° |
| 2026-05-07 07:22 | 51.19057 | 4.20338 | 27177 ft | 423 kts | 207° |
| 2026-05-07 07:22 | 51.16382 | 4.18355 | 27555 ft | 426 kts | 204° |
| 2026-05-07 07:23 | 51.13761 | 4.16741 | 27896 ft | 429 kts | 200° |
| 2026-05-07 07:23 | 51.10893 | 4.15207 | 28271 ft | 432 kts | 199° |
| 2026-05-07 07:23 | 51.08036 | 4.13698 | 28630 ft | 434 kts | 200° |
| 2026-05-07 07:23 | 51.05211 | 4.12182 | 29077 ft | 433 kts | 200° |
| 2026-05-07 07:24 | 51.02364 | 4.10643 | 29559 ft | 432 kts | 200° |
| 2026-05-07 07:24 | 50.99530 | 4.09106 | 30000 ft | 431 kts | 200° |
| 2026-05-07 07:24 | 50.96676 | 4.07558 | 30429 ft | 431 kts | 200° |
| 2026-05-07 07:24 | 50.93837 | 4.06019 | 30844 ft | 431 kts | 200° |
| 2026-05-07 07:25 | 50.88176 | 4.02950 | 31657 ft | 431 kts | 200° |
| 2026-05-07 07:25 | 50.85368 | 4.01305 | 32042 ft | 430 kts | 203° |
| 2026-05-07 07:25 | 50.82609 | 3.99486 | 32431 ft | 430 kts | 204° |
| 2026-05-07 07:26 | 50.79847 | 3.97645 | 32790 ft | 430 kts | 204° |
| 2026-05-07 07:26 | 50.77098 | 3.95855 | 33003 ft | 434 kts | 203° |
| 2026-05-07 07:26 | 50.74299 | 3.94055 | 33045 ft | 436 kts | 203° |
| 2026-05-07 07:27 | 50.68688 | 3.90474 | 33052 ft | 434 kts | 203° |
| 2026-05-07 07:27 | 50.63122 | 3.86934 | 33053 ft | 432 kts | 203° |
| 2026-05-07 07:28 | 50.57533 | 3.83385 | 33053 ft | 432 kts | 203° |
| 2026-05-07 07:28 | 50.52043 | 3.79692 | 33053 ft | 433 kts | 205° |
| 2026-05-07 07:29 | 50.46533 | 3.75920 | 33053 ft | 433 kts | 204° |
| 2026-05-07 07:29 | 50.40991 | 3.72153 | 33053 ft | 433 kts | 204° |
| 2026-05-07 07:30 | 50.35459 | 3.68409 | 33053 ft | 434 kts | 204° |
| 2026-05-07 07:30 | 50.29952 | 3.64693 | 33051 ft | 434 kts | 204° |
| 2026-05-07 07:31 | 50.24498 | 3.61004 | 33053 ft | 434 kts | 205° |
| 2026-05-07 07:31 | 50.18966 | 3.57240 | 33051 ft | 434 kts | 204° |
| 2026-05-07 07:32 | 50.13427 | 3.53503 | 33053 ft | 434 kts | 204° |
| 2026-05-07 07:32 | 50.07923 | 3.49807 | 33053 ft | 434 kts | 204° |
| 2026-05-07 07:33 | 50.02293 | 3.46040 | 33054 ft | 448 kts | 204° |
| 2026-05-07 07:33 | 49.96476 | 3.42160 | 33054 ft | 461 kts | 204° |
| 2026-05-07 07:34 | 49.90525 | 3.38200 | 33053 ft | 468 kts | 204° |
| 2026-05-07 07:34 | 49.84550 | 3.34236 | 33053 ft | 466 kts | 204° |
| 2026-05-07 07:35 | 49.78623 | 3.30313 | 33053 ft | 466 kts | 204° |
| 2026-05-07 07:35 | 49.72673 | 3.26349 | 33053 ft | 466 kts | 204° |
| 2026-05-07 07:36 | 49.66707 | 3.22427 | 33053 ft | 466 kts | 204° |
| 2026-05-07 07:36 | 49.60745 | 3.18526 | 33053 ft | 466 kts | 204° |
| 2026-05-07 07:37 | 49.54778 | 3.14630 | 33053 ft | 466 kts | 204° |
| 2026-05-07 07:37 | 49.48858 | 3.10568 | 33052 ft | 465 kts | 209° |
| 2026-05-07 07:38 | 49.43395 | 3.05399 | 33053 ft | 464 kts | 215° |
| 2026-05-07 07:38 | 49.38018 | 2.99906 | 33053 ft | 464 kts | 214° |
| 2026-05-07 07:39 | 49.32625 | 2.94450 | 33053 ft | 464 kts | 214° |
| 2026-05-07 07:39 | 49.27237 | 2.89022 | 33053 ft | 464 kts | 214° |
| 2026-05-07 07:40 | 49.21853 | 2.83565 | 33053 ft | 464 kts | 215° |
| 2026-05-07 07:40 | 49.16519 | 2.78140 | 33053 ft | 464 kts | 214° |
| 2026-05-07 07:41 | 49.11406 | 2.73023 | 33053 ft | 464 kts | 214° |
| 2026-05-07 07:41 | 49.06058 | 2.67697 | 33053 ft | 464 kts | 214° |
| 2026-05-07 07:42 | 49.01217 | 2.62885 | 33053 ft | 464 kts | 214° |
| 2026-05-07 07:42 | 48.95837 | 2.57542 | 33053 ft | 464 kts | 214° |
| 2026-05-07 07:43 | 48.90782 | 2.52538 | 33053 ft | 464 kts | 214° |
| 2026-05-07 07:43 | 48.85434 | 2.47259 | 33053 ft | 465 kts | 214° |
| 2026-05-07 07:44 | 48.80946 | 2.42774 | 33053 ft | 465 kts | 215° |
| 2026-05-07 07:44 | 48.78147 | 2.39994 | 33053 ft | 465 kts | 214° |
| 2026-05-07 07:45 | 48.72758 | 2.34694 | 33053 ft | 465 kts | 214° |
| 2026-05-07 07:45 | 48.67332 | 2.29383 | 33053 ft | 465 kts | 214° |
| 2026-05-07 07:46 | 48.61889 | 2.24069 | 33053 ft | 465 kts | 214° |
| 2026-05-07 07:46 | 48.56140 | 2.19566 | 33053 ft | 468 kts | 202° |
| 2026-05-07 07:47 | 48.49870 | 2.16830 | 33053 ft | 470 kts | 194° |
| 2026-05-07 07:47 | 48.43505 | 2.14852 | 33053 ft | 470 kts | 193° |
| 2026-05-07 07:48 | 48.37113 | 2.12819 | 33053 ft | 470 kts | 193° |
| 2026-05-07 07:48 | 48.30666 | 2.10986 | 33053 ft | 471 kts | 187° |
| 2026-05-07 07:49 | 48.24103 | 2.10893 | 33053 ft | 474 kts | 176° |
| 2026-05-07 07:49 | 48.17608 | 2.12271 | 33053 ft | 474 kts | 172° |
| 2026-05-07 07:50 | 48.11061 | 2.13468 | 33053 ft | 474 kts | 177° |
| 2026-05-07 07:50 | 48.04483 | 2.13808 | 33053 ft | 473 kts | 179° |
| 2026-05-07 07:51 | 47.97889 | 2.14129 | 33053 ft | 473 kts | 179° |
| 2026-05-07 07:51 | 47.91352 | 2.14488 | 33053 ft | 474 kts | 179° |
| 2026-05-07 07:52 | 47.84783 | 2.14861 | 33053 ft | 473 kts | 179° |
| 2026-05-07 07:52 | 47.78200 | 2.15240 | 33053 ft | 473 kts | 179° |
| 2026-05-07 07:53 | 47.71595 | 2.15624 | 33053 ft | 473 kts | 179° |
| 2026-05-07 07:53 | 47.65020 | 2.16003 | 33053 ft | 473 kts | 179° |
| 2026-05-07 07:54 | 47.58435 | 2.16382 | 33053 ft | 473 kts | 179° |
| 2026-05-07 07:54 | 47.51852 | 2.16760 | 33053 ft | 472 kts | 179° |
| 2026-05-07 07:55 | 47.45327 | 2.17133 | 33053 ft | 472 kts | 179° |
| 2026-05-07 07:55 | 47.38765 | 2.17509 | 33053 ft | 472 kts | 179° |
| 2026-05-07 07:56 | 47.32207 | 2.17884 | 33053 ft | 472 kts | 179° |
| 2026-05-07 07:56 | 47.25632 | 2.18256 | 33053 ft | 472 kts | 179° |
| 2026-05-07 07:57 | 47.19111 | 2.18624 | 33053 ft | 472 kts | 179° |
| 2026-05-07 07:57 | 47.12553 | 2.19077 | 33053 ft | 473 kts | 175° |